sensor_id;sensor_type;location;lat;lon;timestamp;temperature;humidity
54938;DHT22;52756;52.826;6.214;2023-05-21T00:01:11;16.10;63.20
54938;DHT22;52756;52.826;6.214;2023-05-21T00:03:41;16.10;63.10
54938;DHT22;52756;52.826;6.214;2023-05-21T00:06:07;16.10;63.00
54938;DHT22;52756;52.826;6.214;2023-05-21T00:08:32;16.10;63.00
54938;DHT22;52756;52.826;6.214;2023-05-21T00:10:58;16.10;63.10
54938;DHT22;52756;52.826;6.214;2023-05-21T00:13:24;16.10;63.30
54938;DHT22;52756;52.826;6.214;2023-05-21T00:15:50;16.10;63.20
54938;DHT22;52756;52.826;6.214;2023-05-21T00:18:16;16.10;63.20
54938;DHT22;52756;52.826;6.214;2023-05-21T00:20:42;16.10;63.00
54938;DHT22;52756;52.826;6.214;2023-05-21T00:23:08;16.10;63.10
54938;DHT22;52756;52.826;6.214;2023-05-21T00:25:34;16.10;63.30
54938;DHT22;52756;52.826;6.214;2023-05-21T00:28:00;16.10;63.40
54938;DHT22;52756;52.826;6.214;2023-05-21T00:30:25;16.10;63.60
54938;DHT22;52756;52.826;6.214;2023-05-21T00:32:51;16.10;63.60
54938;DHT22;52756;52.826;6.214;2023-05-21T00:35:17;16.10;63.70
54938;DHT22;52756;52.826;6.214;2023-05-21T00:37:42;16.00;63.70
54938;DHT22;52756;52.826;6.214;2023-05-21T00:40:08;16.00;64.00
54938;DHT22;52756;52.826;6.214;2023-05-21T00:42:36;16.00;63.90
54938;DHT22;52756;52.826;6.214;2023-05-21T00:45:06;16.00;64.10
54938;DHT22;52756;52.826;6.214;2023-05-21T00:47:32;16.00;64.30
54938;DHT22;52756;52.826;6.214;2023-05-21T00:50:00;16.00;64.30
54938;DHT22;52756;52.826;6.214;2023-05-21T00:52:26;16.00;64.40
54938;DHT22;52756;52.826;6.214;2023-05-21T00:54:52;16.00;64.10
54938;DHT22;52756;52.826;6.214;2023-05-21T00:57:18;16.00;64.20
54938;DHT22;52756;52.826;6.214;2023-05-21T00:59:50;16.00;64.40
54938;DHT22;52756;52.826;6.214;2023-05-21T01:02:17;16.00;64.10
54938;DHT22;52756;52.826;6.214;2023-05-21T01:04:44;16.00;64.20
54938;DHT22;52756;52.826;6.214;2023-05-21T01:07:10;16.10;64.40
54938;DHT22;52756;52.826;6.214;2023-05-21T01:09:37;16.10;64.60
54938;DHT22;52756;52.826;6.214;2023-05-21T01:12:04;16.00;64.50
54938;DHT22;52756;52.826;6.214;2023-05-21T01:14:30;16.10;64.40
54938;DHT22;52756;52.826;6.214;2023-05-21T01:16:57;16.00;64.50
54938;DHT22;52756;52.826;6.214;2023-05-21T01:19:26;16.00;64.80
54938;DHT22;52756;52.826;6.214;2023-05-21T01:21:56;16.00;64.70
54938;DHT22;52756;52.826;6.214;2023-05-21T01:24:24;16.10;64.90
54938;DHT22;52756;52.826;6.214;2023-05-21T01:26:50;16.00;65.00
54938;DHT22;52756;52.826;6.214;2023-05-21T01:29:16;16.00;65.20
54938;DHT22;52756;52.826;6.214;2023-05-21T01:34:50;16.00;65.10
54938;DHT22;52756;52.826;6.214;2023-05-21T01:37:29;16.00;65.20
54938;DHT22;52756;52.826;6.214;2023-05-21T01:40:02;16.00;65.20
54938;DHT22;52756;52.826;6.214;2023-05-21T01:42:30;15.90;65.10
54938;DHT22;52756;52.826;6.214;2023-05-21T01:44:58;15.90;65.30
54938;DHT22;52756;52.826;6.214;2023-05-21T01:47:27;15.90;65.40
54938;DHT22;52756;52.826;6.214;2023-05-21T01:49:54;15.90;65.70
54938;DHT22;52756;52.826;6.214;2023-05-21T01:52:21;15.90;65.10
54938;DHT22;52756;52.826;6.214;2023-05-21T01:54:46;15.90;65.40
54938;DHT22;52756;52.826;6.214;2023-05-21T01:57:15;15.90;65.70
54938;DHT22;52756;52.826;6.214;2023-05-21T01:59:41;15.90;65.80
54938;DHT22;52756;52.826;6.214;2023-05-21T02:02:08;15.80;66.10
54938;DHT22;52756;52.826;6.214;2023-05-21T02:04:34;15.80;66.10
54938;DHT22;52756;52.826;6.214;2023-05-21T02:07:00;15.80;66.20
54938;DHT22;52756;52.826;6.214;2023-05-21T02:09:26;15.80;66.30
54938;DHT22;52756;52.826;6.214;2023-05-21T02:11:52;15.80;66.20
54938;DHT22;52756;52.826;6.214;2023-05-21T02:14:18;15.80;66.50
54938;DHT22;52756;52.826;6.214;2023-05-21T02:16:44;15.80;66.30
54938;DHT22;52756;52.826;6.214;2023-05-21T02:19:10;15.80;66.50
54938;DHT22;52756;52.826;6.214;2023-05-21T02:21:36;15.80;66.20
54938;DHT22;52756;52.826;6.214;2023-05-21T02:24:02;15.80;66.60
54938;DHT22;52756;52.826;6.214;2023-05-21T02:26:27;15.80;66.60
54938;DHT22;52756;52.826;6.214;2023-05-21T02:28:53;15.80;66.70
54938;DHT22;52756;52.826;6.214;2023-05-21T02:31:19;15.80;66.60
54938;DHT22;52756;52.826;6.214;2023-05-21T02:33:45;15.80;66.30
54938;DHT22;52756;52.826;6.214;2023-05-21T02:36:11;15.80;66.10
54938;DHT22;52756;52.826;6.214;2023-05-21T02:38:38;15.70;66.30
54938;DHT22;52756;52.826;6.214;2023-05-21T02:41:09;15.70;66.20
54938;DHT22;52756;52.826;6.214;2023-05-21T02:43:35;15.70;66.30
54938;DHT22;52756;52.826;6.214;2023-05-21T02:46:01;15.70;66.10
54938;DHT22;52756;52.826;6.214;2023-05-21T02:48:27;15.70;66.00
54938;DHT22;52756;52.826;6.214;2023-05-21T02:50:53;15.70;66.20
54938;DHT22;52756;52.826;6.214;2023-05-21T02:53:18;15.60;65.90
54938;DHT22;52756;52.826;6.214;2023-05-21T02:55:44;15.70;65.80
54938;DHT22;52756;52.826;6.214;2023-05-21T02:58:10;15.60;65.80
54938;DHT22;52756;52.826;6.214;2023-05-21T03:00:38;15.60;65.80
54938;DHT22;52756;52.826;6.214;2023-05-21T03:03:03;15.60;65.60
54938;DHT22;52756;52.826;6.214;2023-05-21T03:05:29;15.70;66.20
54938;DHT22;52756;52.826;6.214;2023-05-21T03:07:55;15.60;66.50
54938;DHT22;52756;52.826;6.214;2023-05-21T03:10:21;15.60;66.70
54938;DHT22;52756;52.826;6.214;2023-05-21T03:12:47;15.60;66.60
54938;DHT22;52756;52.826;6.214;2023-05-21T03:15:13;15.60;66.70
54938;DHT22;52756;52.826;6.214;2023-05-21T03:17:39;15.60;66.80
54938;DHT22;52756;52.826;6.214;2023-05-21T03:20:07;15.50;66.40
54938;DHT22;52756;52.826;6.214;2023-05-21T03:22:33;15.50;66.80
54938;DHT22;52756;52.826;6.214;2023-05-21T03:24:59;15.50;66.70
54938;DHT22;52756;52.826;6.214;2023-05-21T03:27:26;15.50;67.00
54938;DHT22;52756;52.826;6.214;2023-05-21T03:29:52;15.50;67.30
54938;DHT22;52756;52.826;6.214;2023-05-21T03:32:20;15.50;67.10
54938;DHT22;52756;52.826;6.214;2023-05-21T03:34:46;15.50;67.40
54938;DHT22;52756;52.826;6.214;2023-05-21T03:37:11;15.50;67.30
54938;DHT22;52756;52.826;6.214;2023-05-21T03:39:37;15.40;67.40
54938;DHT22;52756;52.826;6.214;2023-05-21T03:42:03;15.40;67.70
54938;DHT22;52756;52.826;6.214;2023-05-21T03:44:29;15.40;68.00
54938;DHT22;52756;52.826;6.214;2023-05-21T03:46:57;15.40;68.10
54938;DHT22;52756;52.826;6.214;2023-05-21T03:49:24;15.40;68.10
54938;DHT22;52756;52.826;6.214;2023-05-21T03:51:50;15.30;67.80
54938;DHT22;52756;52.826;6.214;2023-05-21T03:54:16;15.30;68.00
54938;DHT22;52756;52.826;6.214;2023-05-21T03:56:41;15.30;68.10
54938;DHT22;52756;52.826;6.214;2023-05-21T03:59:07;15.30;68.10
54938;DHT22;52756;52.826;6.214;2023-05-21T04:01:33;15.30;68.40
54938;DHT22;52756;52.826;6.214;2023-05-21T04:03:59;15.30;68.40
54938;DHT22;52756;52.826;6.214;2023-05-21T04:06:24;15.30;68.20
54938;DHT22;52756;52.826;6.214;2023-05-21T04:08:50;15.30;68.30
54938;DHT22;52756;52.826;6.214;2023-05-21T04:11:16;15.30;68.20
54938;DHT22;52756;52.826;6.214;2023-05-21T04:13:42;15.30;68.40
54938;DHT22;52756;52.826;6.214;2023-05-21T04:16:08;15.30;68.60
54938;DHT22;52756;52.826;6.214;2023-05-21T04:18:34;15.30;68.80
54938;DHT22;52756;52.826;6.214;2023-05-21T04:20:59;15.30;69.00
54938;DHT22;52756;52.826;6.214;2023-05-21T04:23:26;15.30;69.10
54938;DHT22;52756;52.826;6.214;2023-05-21T04:25:52;15.30;68.80
54938;DHT22;52756;52.826;6.214;2023-05-21T04:28:18;15.30;69.00
54938;DHT22;52756;52.826;6.214;2023-05-21T04:30:46;15.30;69.20
54938;DHT22;52756;52.826;6.214;2023-05-21T04:33:12;15.30;69.30
54938;DHT22;52756;52.826;6.214;2023-05-21T04:35:42;15.30;69.30
54938;DHT22;52756;52.826;6.214;2023-05-21T04:38:09;15.20;69.10
54938;DHT22;52756;52.826;6.214;2023-05-21T04:40:34;15.30;69.30
54938;DHT22;52756;52.826;6.214;2023-05-21T04:43:00;15.30;69.30
54938;DHT22;52756;52.826;6.214;2023-05-21T04:45:26;15.30;69.10
54938;DHT22;52756;52.826;6.214;2023-05-21T04:47:52;15.30;69.20
54938;DHT22;52756;52.826;6.214;2023-05-21T04:50:18;15.30;69.40
54938;DHT22;52756;52.826;6.214;2023-05-21T04:52:44;15.30;69.50
54938;DHT22;52756;52.826;6.214;2023-05-21T04:55:10;15.30;69.60
54938;DHT22;52756;52.826;6.214;2023-05-21T04:57:36;15.30;69.70
54938;DHT22;52756;52.826;6.214;2023-05-21T05:00:02;15.30;69.80
54938;DHT22;52756;52.826;6.214;2023-05-21T05:02:31;15.30;69.70
54938;DHT22;52756;52.826;6.214;2023-05-21T05:04:57;15.30;69.80
54938;DHT22;52756;52.826;6.214;2023-05-21T05:07:24;15.30;70.00
54938;DHT22;52756;52.826;6.214;2023-05-21T05:09:50;15.30;70.00
54938;DHT22;52756;52.826;6.214;2023-05-21T05:12:15;15.30;69.80
54938;DHT22;52756;52.826;6.214;2023-05-21T05:14:41;15.30;69.90
54938;DHT22;52756;52.826;6.214;2023-05-21T05:17:07;15.30;69.90
54938;DHT22;52756;52.826;6.214;2023-05-21T05:19:34;15.30;69.60
54938;DHT22;52756;52.826;6.214;2023-05-21T05:22:00;15.40;69.60
54938;DHT22;52756;52.826;6.214;2023-05-21T05:24:26;15.40;69.50
54938;DHT22;52756;52.826;6.214;2023-05-21T05:26:51;15.40;69.40
54938;DHT22;52756;52.826;6.214;2023-05-21T05:29:17;15.40;69.50
54938;DHT22;52756;52.826;6.214;2023-05-21T05:31:43;15.40;69.70
54938;DHT22;52756;52.826;6.214;2023-05-21T05:34:08;15.40;69.70
54938;DHT22;52756;52.826;6.214;2023-05-21T05:36:34;15.40;69.40
54938;DHT22;52756;52.826;6.214;2023-05-21T05:39:00;15.40;69.60
54938;DHT22;52756;52.826;6.214;2023-05-21T05:41:25;15.50;69.70
54938;DHT22;52756;52.826;6.214;2023-05-21T05:43:51;15.50;69.50
54938;DHT22;52756;52.826;6.214;2023-05-21T05:46:17;15.50;69.50
54938;DHT22;52756;52.826;6.214;2023-05-21T05:48:42;15.50;69.60
54938;DHT22;52756;52.826;6.214;2023-05-21T05:51:08;15.50;69.50
54938;DHT22;52756;52.826;6.214;2023-05-21T05:53:34;15.50;69.40
54938;DHT22;52756;52.826;6.214;2023-05-21T05:55:59;15.50;69.40
54938;DHT22;52756;52.826;6.214;2023-05-21T05:58:25;15.60;69.40
54938;DHT22;52756;52.826;6.214;2023-05-21T06:00:51;15.60;69.40
54938;DHT22;52756;52.826;6.214;2023-05-21T06:03:16;15.60;69.50
54938;DHT22;52756;52.826;6.214;2023-05-21T06:05:43;15.60;69.60
54938;DHT22;52756;52.826;6.214;2023-05-21T06:08:08;15.60;69.80
54938;DHT22;52756;52.826;6.214;2023-05-21T06:10:34;15.60;69.80
54938;DHT22;52756;52.826;6.214;2023-05-21T06:13:00;15.60;69.60
54938;DHT22;52756;52.826;6.214;2023-05-21T06:15:26;15.60;69.60
54938;DHT22;52756;52.826;6.214;2023-05-21T06:17:51;15.70;69.50
54938;DHT22;52756;52.826;6.214;2023-05-21T06:20:17;15.70;69.50
54938;DHT22;52756;52.826;6.214;2023-05-21T06:22:43;15.70;69.50
54938;DHT22;52756;52.826;6.214;2023-05-21T06:25:08;15.70;69.70
54938;DHT22;52756;52.826;6.214;2023-05-21T06:27:36;15.80;69.90
54938;DHT22;52756;52.826;6.214;2023-05-21T06:30:01;15.80;70.00
54938;DHT22;52756;52.826;6.214;2023-05-21T06:32:27;15.80;70.20
54938;DHT22;52756;52.826;6.214;2023-05-21T06:34:53;15.80;70.00
54938;DHT22;52756;52.826;6.214;2023-05-21T06:37:19;15.80;69.90
54938;DHT22;52756;52.826;6.214;2023-05-21T06:39:46;15.80;69.80
54938;DHT22;52756;52.826;6.214;2023-05-21T06:42:12;15.90;69.70
54938;DHT22;52756;52.826;6.214;2023-05-21T06:44:38;15.90;69.60
54938;DHT22;52756;52.826;6.214;2023-05-21T06:47:04;16.00;69.90
54938;DHT22;52756;52.826;6.214;2023-05-21T06:49:30;16.00;69.60
54938;DHT22;52756;52.826;6.214;2023-05-21T06:51:56;16.00;69.90
54938;DHT22;52756;52.826;6.214;2023-05-21T06:54:21;16.00;69.60
54938;DHT22;52756;52.826;6.214;2023-05-21T06:56:47;16.00;69.60
54938;DHT22;52756;52.826;6.214;2023-05-21T06:59:13;16.10;69.70
54938;DHT22;52756;52.826;6.214;2023-05-21T07:01:39;16.10;69.70
54938;DHT22;52756;52.826;6.214;2023-05-21T07:04:07;16.20;69.60
54938;DHT22;52756;52.826;6.214;2023-05-21T07:06:33;16.20;69.40
54938;DHT22;52756;52.826;6.214;2023-05-21T07:09:00;16.30;69.40
54938;DHT22;52756;52.826;6.214;2023-05-21T07:11:26;16.30;69.30
54938;DHT22;52756;52.826;6.214;2023-05-21T07:13:55;16.40;69.60
54938;DHT22;52756;52.826;6.214;2023-05-21T07:16:21;16.40;69.80
54938;DHT22;52756;52.826;6.214;2023-05-21T07:18:47;16.50;69.60
54938;DHT22;52756;52.826;6.214;2023-05-21T07:21:12;16.60;69.60
54938;DHT22;52756;52.826;6.214;2023-05-21T07:23:38;16.70;69.30
54938;DHT22;52756;52.826;6.214;2023-05-21T07:26:04;16.70;69.10
54938;DHT22;52756;52.826;6.214;2023-05-21T07:28:30;16.80;68.80
54938;DHT22;52756;52.826;6.214;2023-05-21T07:30:55;16.90;68.60
54938;DHT22;52756;52.826;6.214;2023-05-21T07:33:21;16.90;68.30
54938;DHT22;52756;52.826;6.214;2023-05-21T07:35:47;17.00;68.20
54938;DHT22;52756;52.826;6.214;2023-05-21T07:38:13;17.00;68.20
54938;DHT22;52756;52.826;6.214;2023-05-21T07:40:39;17.10;68.00
54938;DHT22;52756;52.826;6.214;2023-05-21T07:43:04;17.20;67.40
54938;DHT22;52756;52.826;6.214;2023-05-21T07:45:30;17.30;67.10
54938;DHT22;52756;52.826;6.214;2023-05-21T07:47:56;17.40;66.80
54938;DHT22;52756;52.826;6.214;2023-05-21T07:50:21;17.50;66.60
54938;DHT22;52756;52.826;6.214;2023-05-21T07:52:47;17.60;66.50
54938;DHT22;52756;52.826;6.214;2023-05-21T07:55:13;17.70;66.70
54938;DHT22;52756;52.826;6.214;2023-05-21T07:57:38;17.80;66.30
54938;DHT22;52756;52.826;6.214;2023-05-21T08:00:05;17.90;65.80
54938;DHT22;52756;52.826;6.214;2023-05-21T08:02:34;18.00;65.60
54938;DHT22;52756;52.826;6.214;2023-05-21T08:05:00;18.10;65.90
54938;DHT22;52756;52.826;6.214;2023-05-21T08:07:26;18.30;65.70
54938;DHT22;52756;52.826;6.214;2023-05-21T08:09:52;18.50;64.70
54938;DHT22;52756;52.826;6.214;2023-05-21T08:12:19;18.60;63.90
54938;DHT22;52756;52.826;6.214;2023-05-21T08:14:44;18.80;64.20
54938;DHT22;52756;52.826;6.214;2023-05-21T08:17:10;18.90;63.80
54938;DHT22;52756;52.826;6.214;2023-05-21T08:19:36;19.10;62.70
54938;DHT22;52756;52.826;6.214;2023-05-21T08:22:02;19.30;62.00
54938;DHT22;52756;52.826;6.214;2023-05-21T08:24:28;19.40;62.30
54938;DHT22;52756;52.826;6.214;2023-05-21T08:26:53;19.50;61.70
54938;DHT22;52756;52.826;6.214;2023-05-21T08:29:19;19.70;60.90
54938;DHT22;52756;52.826;6.214;2023-05-21T08:31:45;19.80;60.50
54938;DHT22;52756;52.826;6.214;2023-05-21T08:34:10;19.90;60.60
54938;DHT22;52756;52.826;6.214;2023-05-21T08:36:36;20.00;60.50
54938;DHT22;52756;52.826;6.214;2023-05-21T08:39:02;20.10;59.60
54938;DHT22;52756;52.826;6.214;2023-05-21T08:41:30;20.20;59.40
54938;DHT22;52756;52.826;6.214;2023-05-21T08:43:55;20.30;59.70
54938;DHT22;52756;52.826;6.214;2023-05-21T08:46:22;20.40;59.10
54938;DHT22;52756;52.826;6.214;2023-05-21T08:48:51;20.50;59.30
54938;DHT22;52756;52.826;6.214;2023-05-21T08:51:20;20.70;58.50
54938;DHT22;52756;52.826;6.214;2023-05-21T08:53:47;20.70;58.00
54938;DHT22;52756;52.826;6.214;2023-05-21T08:56:18;20.70;58.10
54938;DHT22;52756;52.826;6.214;2023-05-21T08:58:45;20.80;57.60
54938;DHT22;52756;52.826;6.214;2023-05-21T09:01:11;20.80;57.70
54938;DHT22;52756;52.826;6.214;2023-05-21T09:03:41;20.80;57.50
54938;DHT22;52756;52.826;6.214;2023-05-21T09:06:12;20.90;57.90
54938;DHT22;52756;52.826;6.214;2023-05-21T09:08:44;21.00;58.20
54938;DHT22;52756;52.826;6.214;2023-05-21T09:11:11;21.00;57.20
54938;DHT22;52756;52.826;6.214;2023-05-21T09:13:39;21.10;57.20
54938;DHT22;52756;52.826;6.214;2023-05-21T09:16:05;21.30;57.60
54938;DHT22;52756;52.826;6.214;2023-05-21T09:18:31;21.30;57.00
54938;DHT22;52756;52.826;6.214;2023-05-21T09:20:58;21.30;57.30
54938;DHT22;52756;52.826;6.214;2023-05-21T09:23:32;21.40;56.80
54938;DHT22;52756;52.826;6.214;2023-05-21T09:25:59;21.50;56.70
54938;DHT22;52756;52.826;6.214;2023-05-21T09:28:25;21.60;56.70
54938;DHT22;52756;52.826;6.214;2023-05-21T09:30:51;21.60;56.00
54938;DHT22;52756;52.826;6.214;2023-05-21T09:33:25;21.70;55.80
54938;DHT22;52756;52.826;6.214;2023-05-21T09:35:51;21.70;56.20
54938;DHT22;52756;52.826;6.214;2023-05-21T09:38:17;21.70;56.30
54938;DHT22;52756;52.826;6.214;2023-05-21T09:40:46;21.80;55.90
54938;DHT22;52756;52.826;6.214;2023-05-21T09:43:15;21.80;55.90
54938;DHT22;52756;52.826;6.214;2023-05-21T09:45:53;21.90;55.90
54938;DHT22;52756;52.826;6.214;2023-05-21T09:51:14;21.90;55.70
54938;DHT22;52756;52.826;6.214;2023-05-21T09:53:53;21.90;55.70
54938;DHT22;52756;52.826;6.214;2023-05-21T09:56:21;22.00;55.90
54938;DHT22;52756;52.826;6.214;2023-05-21T09:58:49;21.90;55.50
54938;DHT22;52756;52.826;6.214;2023-05-21T10:01:17;21.90;55.90
54938;DHT22;52756;52.826;6.214;2023-05-21T10:03:46;21.90;56.00
54938;DHT22;52756;52.826;6.214;2023-05-21T10:06:13;21.90;55.30
54938;DHT22;52756;52.826;6.214;2023-05-21T10:08:41;21.90;55.60
54938;DHT22;52756;52.826;6.214;2023-05-21T10:11:09;21.90;56.10
54938;DHT22;52756;52.826;6.214;2023-05-21T10:13:39;21.90;56.40
54938;DHT22;52756;52.826;6.214;2023-05-21T10:16:06;21.90;55.60
54938;DHT22;52756;52.826;6.214;2023-05-21T10:18:32;21.90;55.50
54938;DHT22;52756;52.826;6.214;2023-05-21T10:20:59;21.90;55.80
54938;DHT22;52756;52.826;6.214;2023-05-21T10:23:26;21.90;56.00
54938;DHT22;52756;52.826;6.214;2023-05-21T10:25:54;21.90;55.70
54938;DHT22;52756;52.826;6.214;2023-05-21T10:28:21;21.90;55.50
54938;DHT22;52756;52.826;6.214;2023-05-21T10:30:48;21.90;55.90
54938;DHT22;52756;52.826;6.214;2023-05-21T10:33:17;21.90;56.20
54938;DHT22;52756;52.826;6.214;2023-05-21T10:35:45;22.00;56.20
54938;DHT22;52756;52.826;6.214;2023-05-21T10:38:12;22.10;56.10
54938;DHT22;52756;52.826;6.214;2023-05-21T10:40:38;22.10;55.60
54938;DHT22;52756;52.826;6.214;2023-05-21T10:57:02;22.40;54.10
54938;DHT22;52756;52.826;6.214;2023-05-21T10:59:40;22.40;54.80
54938;DHT22;52756;52.826;6.214;2023-05-21T11:02:06;22.50;55.20
54938;DHT22;52756;52.826;6.214;2023-05-21T11:04:34;22.50;55.50
54938;DHT22;52756;52.826;6.214;2023-05-21T11:07:04;22.50;54.80
54938;DHT22;52756;52.826;6.214;2023-05-21T11:09:30;22.50;54.80
54938;DHT22;52756;52.826;6.214;2023-05-21T11:11:57;22.60;54.90
54938;DHT22;52756;52.826;6.214;2023-05-21T11:17:36;22.70;55.80
54938;DHT22;52756;52.826;6.214;2023-05-21T11:20:06;22.80;55.40
54938;DHT22;52756;52.826;6.214;2023-05-21T11:22:34;22.90;54.60
54938;DHT22;52756;52.826;6.214;2023-05-21T11:25:01;22.90;55.10
54938;DHT22;52756;52.826;6.214;2023-05-21T11:27:36;22.90;54.80
54938;DHT22;52756;52.826;6.214;2023-05-21T11:30:16;23.00;54.60
54938;DHT22;52756;52.826;6.214;2023-05-21T11:35:58;23.20;54.70
54938;DHT22;52756;52.826;6.214;2023-05-21T11:38:29;23.30;53.20
54938;DHT22;52756;52.826;6.214;2023-05-21T11:41:00;23.30;53.70
54938;DHT22;52756;52.826;6.214;2023-05-21T11:43:27;23.40;53.50
54938;DHT22;52756;52.826;6.214;2023-05-21T11:45:53;23.50;53.10
54938;DHT22;52756;52.826;6.214;2023-05-21T11:48:26;23.50;53.40
54938;DHT22;52756;52.826;6.214;2023-05-21T11:50:52;23.60;53.20
54938;DHT22;52756;52.826;6.214;2023-05-21T11:53:17;23.70;53.10
54938;DHT22;52756;52.826;6.214;2023-05-21T11:55:43;23.70;52.50
54938;DHT22;52756;52.826;6.214;2023-05-21T11:58:12;23.80;52.20
54938;DHT22;52756;52.826;6.214;2023-05-21T12:00:39;23.80;52.60
54938;DHT22;52756;52.826;6.214;2023-05-21T12:03:05;23.90;52.50
54938;DHT22;52756;52.826;6.214;2023-05-21T12:05:48;23.90;52.20
54938;DHT22;52756;52.826;6.214;2023-05-21T12:08:23;23.90;52.00
54938;DHT22;52756;52.826;6.214;2023-05-21T12:10:57;24.00;52.70
54938;DHT22;52756;52.826;6.214;2023-05-21T12:13:24;24.10;52.10
54938;DHT22;52756;52.826;6.214;2023-05-21T12:15:52;24.10;52.70
54938;DHT22;52756;52.826;6.214;2023-05-21T12:18:18;24.10;52.30
54938;DHT22;52756;52.826;6.214;2023-05-21T12:20:45;24.20;52.20
54938;DHT22;52756;52.826;6.214;2023-05-21T12:23:22;24.30;51.70
54938;DHT22;52756;52.826;6.214;2023-05-21T12:25:48;24.30;51.40
54938;DHT22;52756;52.826;6.214;2023-05-21T12:28:14;24.40;51.70
54938;DHT22;52756;52.826;6.214;2023-05-21T12:30:40;24.40;52.60
54938;DHT22;52756;52.826;6.214;2023-05-21T12:33:06;24.50;51.10
54938;DHT22;52756;52.826;6.214;2023-05-21T12:35:31;24.50;51.30
54938;DHT22;52756;52.826;6.214;2023-05-21T12:37:59;24.50;51.20
54938;DHT22;52756;52.826;6.214;2023-05-21T12:40:35;24.60;51.40
54938;DHT22;52756;52.826;6.214;2023-05-21T12:43:02;24.70;50.90
54938;DHT22;52756;52.826;6.214;2023-05-21T12:45:32;24.70;50.80
54938;DHT22;52756;52.826;6.214;2023-05-21T12:48:01;24.80;50.40
54938;DHT22;52756;52.826;6.214;2023-05-21T12:50:27;24.80;50.20
54938;DHT22;52756;52.826;6.214;2023-05-21T12:52:53;24.80;50.50
54938;DHT22;52756;52.826;6.214;2023-05-21T12:55:22;24.90;50.60
54938;DHT22;52756;52.826;6.214;2023-05-21T12:57:47;24.90;50.00
54938;DHT22;52756;52.826;6.214;2023-05-21T13:00:13;25.00;50.30
54938;DHT22;52756;52.826;6.214;2023-05-21T13:02:39;25.00;50.60
54938;DHT22;52756;52.826;6.214;2023-05-21T13:05:10;25.10;50.60
54938;DHT22;52756;52.826;6.214;2023-05-21T13:07:39;25.10;49.20
54938;DHT22;52756;52.826;6.214;2023-05-21T13:10:06;25.10;49.60
54938;DHT22;52756;52.826;6.214;2023-05-21T13:12:33;25.10;49.10
54938;DHT22;52756;52.826;6.214;2023-05-21T13:15:00;25.10;49.20
54938;DHT22;52756;52.826;6.214;2023-05-21T13:17:27;25.10;49.70
54938;DHT22;52756;52.826;6.214;2023-05-21T13:20:15;25.10;50.10
54938;DHT22;52756;52.826;6.214;2023-05-21T13:22:52;25.10;50.30
54938;DHT22;52756;52.826;6.214;2023-05-21T13:25:22;25.10;50.40
54938;DHT22;52756;52.826;6.214;2023-05-21T13:27:50;25.10;50.00
54938;DHT22;52756;52.826;6.214;2023-05-21T13:30:16;25.10;50.40
54938;DHT22;52756;52.826;6.214;2023-05-21T13:32:43;25.00;50.20
54938;DHT22;52756;52.826;6.214;2023-05-21T13:35:09;25.00;50.80
54938;DHT22;52756;52.826;6.214;2023-05-21T13:37:38;24.90;51.20
54938;DHT22;52756;52.826;6.214;2023-05-21T13:40:08;24.90;51.30
54938;DHT22;52756;52.826;6.214;2023-05-21T13:42:39;25.00;51.70
54938;DHT22;52756;52.826;6.214;2023-05-21T13:45:06;24.90;51.90
54938;DHT22;52756;52.826;6.214;2023-05-21T13:47:32;25.00;51.60
54938;DHT22;52756;52.826;6.214;2023-05-21T13:49:58;25.00;52.00
54938;DHT22;52756;52.826;6.214;2023-05-21T13:52:24;25.00;51.20
54938;DHT22;52756;52.826;6.214;2023-05-21T13:54:49;25.10;51.70
54938;DHT22;52756;52.826;6.214;2023-05-21T13:57:15;25.10;51.20
54938;DHT22;52756;52.826;6.214;2023-05-21T13:59:41;25.10;51.00
54938;DHT22;52756;52.826;6.214;2023-05-21T14:02:07;25.10;51.20
54938;DHT22;52756;52.826;6.214;2023-05-21T14:04:33;25.10;51.60
54938;DHT22;52756;52.826;6.214;2023-05-21T14:07:00;25.10;51.80
54938;DHT22;52756;52.826;6.214;2023-05-21T14:09:26;25.10;51.50
54938;DHT22;52756;52.826;6.214;2023-05-21T14:11:52;25.10;50.60
54938;DHT22;52756;52.826;6.214;2023-05-21T14:14:19;25.10;51.20
54938;DHT22;52756;52.826;6.214;2023-05-21T14:16:45;25.10;51.30
54938;DHT22;52756;52.826;6.214;2023-05-21T14:19:11;25.00;51.50
54938;DHT22;52756;52.826;6.214;2023-05-21T14:21:37;25.10;51.60
54938;DHT22;52756;52.826;6.214;2023-05-21T14:24:03;25.10;52.00
54938;DHT22;52756;52.826;6.214;2023-05-21T14:26:29;25.10;52.30
54938;DHT22;52756;52.826;6.214;2023-05-21T14:28:55;25.10;52.00
54938;DHT22;52756;52.826;6.214;2023-05-21T14:31:20;25.10;51.60
54938;DHT22;52756;52.826;6.214;2023-05-21T14:33:47;25.10;51.90
54938;DHT22;52756;52.826;6.214;2023-05-21T14:36:13;25.10;51.70
54938;DHT22;52756;52.826;6.214;2023-05-21T14:38:39;25.20;51.90
54938;DHT22;52756;52.826;6.214;2023-05-21T14:41:05;25.20;51.80
54938;DHT22;52756;52.826;6.214;2023-05-21T14:43:32;25.10;52.00
54938;DHT22;52756;52.826;6.214;2023-05-21T14:45:57;25.10;53.00
54938;DHT22;52756;52.826;6.214;2023-05-21T14:48:23;25.20;53.00
54938;DHT22;52756;52.826;6.214;2023-05-21T14:50:49;25.20;52.90
54938;DHT22;52756;52.826;6.214;2023-05-21T14:53:16;25.20;52.90
54938;DHT22;52756;52.826;6.214;2023-05-21T14:55:42;25.30;53.10
54938;DHT22;52756;52.826;6.214;2023-05-21T14:58:08;25.30;53.00
54938;DHT22;52756;52.826;6.214;2023-05-21T15:00:34;25.40;53.40
54938;DHT22;52756;52.826;6.214;2023-05-21T15:03:00;25.40;53.20
54938;DHT22;52756;52.826;6.214;2023-05-21T15:05:27;25.40;52.30
54938;DHT22;52756;52.826;6.214;2023-05-21T15:07:54;25.40;52.50
54938;DHT22;52756;52.826;6.214;2023-05-21T15:10:24;25.30;52.80
54938;DHT22;52756;52.826;6.214;2023-05-21T15:12:50;25.30;52.90
54938;DHT22;52756;52.826;6.214;2023-05-21T15:15:16;25.30;52.60
54938;DHT22;52756;52.826;6.214;2023-05-21T15:17:42;25.30;52.30
54938;DHT22;52756;52.826;6.214;2023-05-21T15:20:08;25.30;52.40
54938;DHT22;52756;52.826;6.214;2023-05-21T15:22:35;25.30;52.60
54938;DHT22;52756;52.826;6.214;2023-05-21T15:25:02;25.30;53.00
54938;DHT22;52756;52.826;6.214;2023-05-21T15:27:28;25.30;53.00
54938;DHT22;52756;52.826;6.214;2023-05-21T15:29:54;25.20;52.70
54938;DHT22;52756;52.826;6.214;2023-05-21T15:32:20;25.30;53.00
54938;DHT22;52756;52.826;6.214;2023-05-21T15:34:46;25.20;53.40
54938;DHT22;52756;52.826;6.214;2023-05-21T15:37:12;25.20;53.50
54938;DHT22;52756;52.826;6.214;2023-05-21T15:39:42;25.10;53.20
54938;DHT22;52756;52.826;6.214;2023-05-21T15:42:08;25.20;53.20
54938;DHT22;52756;52.826;6.214;2023-05-21T15:44:34;25.10;53.50
54938;DHT22;52756;52.826;6.214;2023-05-21T15:47:00;25.10;53.70
54938;DHT22;52756;52.826;6.214;2023-05-21T15:49:25;25.20;53.90
54938;DHT22;52756;52.826;6.214;2023-05-21T15:51:51;25.30;54.30
54938;DHT22;52756;52.826;6.214;2023-05-21T15:54:17;25.30;54.10